Bowling Green, Illinois
Current Conditions -  °F | °C
As of 12:15 AM on Thursday 29 Jan 2015 (Local Time) from K1H2 Reporting Station
Broken Clouds Broken Clouds  
Wind Chill: 32°   Ceiling: 11000
Heat Index: 40°   Visibility: 10mi
Dew Point: 27°   Wind: 13mph
Humidity: 61%   Direction: 120°ESE
Pressure: 29.89"   Gusts: NA
Location:  39.2184°N, 88.9038°W
Report Text: K1H2 290615Z AUTO 12011KT 10SM BKN110 04/M03 A2989 RMK AO2 T00421028
Loading
Personal Weather Stations






























Interactive Weather Map New forecast layout! Learn more

10-Day Weather Forecast

Advertisements
Track Severe Weather on mobile